Terminal Aerodrome Forecast
Issued by NWS Tuscon, AZ

Home | Current Version | Previous Version | Text Only | Print | Product List | Glossary On
Versions: 1 2 3 4 5 6 7 8 9 10 11 12 13 14
910
FTUS45 KTWC 291735
TAFDUG
TAF
KDUG 291735Z 2918/3018 12010G17KT P6SM FEW250
     FM292000 17016G24KT P6SM SCT100 BKN250
     FM300200 29010KT P6SM SCT120 BKN200
     FM300700 06006KT P6SM BKN200
     FM301600 14005KT P6SM BKN200=

USA.gov is the U.S. government's official web portal to all federal, state and local government web resources and services.